sensor_id;sensor_type;location;lat;lon;timestamp;P1;durP1;ratioP1;P2;durP2;ratioP2
3843;SDS011;1937;51.444;6.484;2023-11-21T00:01:24;20.33;;;11.43;;
3843;SDS011;1937;51.444;6.484;2023-11-21T00:03:52;22.50;;;13.40;;
3843;SDS011;1937;51.444;6.484;2023-11-21T00:06:22;21.03;;;10.97;;
3843;SDS011;1937;51.444;6.484;2023-11-21T00:08:50;21.67;;;12.03;;
3843;SDS011;1937;51.444;6.484;2023-11-21T00:11:18;21.90;;;12.50;;
3843;SDS011;1937;51.444;6.484;2023-11-21T00:13:46;18.80;;;12.13;;
3843;SDS011;1937;51.444;6.484;2023-11-21T00:16:15;17.93;;;12.13;;
3843;SDS011;1937;51.444;6.484;2023-11-21T00:18:42;18.77;;;12.50;;
3843;SDS011;1937;51.444;6.484;2023-11-21T00:21:11;20.90;;;12.80;;
3843;SDS011;1937;51.444;6.484;2023-11-21T00:23:41;19.60;;;11.83;;
3843;SDS011;1937;51.444;6.484;2023-11-21T00:26:09;33.40;;;14.50;;
3843;SDS011;1937;51.444;6.484;2023-11-21T00:28:38;22.87;;;12.53;;
3843;SDS011;1937;51.444;6.484;2023-11-21T00:31:06;26.10;;;14.47;;
3843;SDS011;1937;51.444;6.484;2023-11-21T00:33:34;35.07;;;15.97;;
3843;SDS011;1937;51.444;6.484;2023-11-21T00:36:02;19.83;;;12.27;;
3843;SDS011;1937;51.444;6.484;2023-11-21T00:38:29;24.70;;;15.00;;
3843;SDS011;1937;51.444;6.484;2023-11-21T00:40:59;41.27;;;15.27;;
3843;SDS011;1937;51.444;6.484;2023-11-21T00:43:27;31.03;;;15.27;;
3843;SDS011;1937;51.444;6.484;2023-11-21T00:45:55;26.43;;;15.77;;
3843;SDS011;1937;51.444;6.484;2023-11-21T00:48:23;27.33;;;15.30;;
3843;SDS011;1937;51.444;6.484;2023-11-21T00:50:51;27.50;;;15.20;;
3843;SDS011;1937;51.444;6.484;2023-11-21T00:53:21;29.17;;;14.17;;
3843;SDS011;1937;51.444;6.484;2023-11-21T00:55:49;23.03;;;14.10;;
3843;SDS011;1937;51.444;6.484;2023-11-21T00:58:23;28.60;;;14.00;;
3843;SDS011;1937;51.444;6.484;2023-11-21T01:00:52;25.03;;;15.30;;
3843;SDS011;1937;51.444;6.484;2023-11-21T01:03:20;36.47;;;15.50;;
3843;SDS011;1937;51.444;6.484;2023-11-21T01:05:48;30.73;;;16.50;;
3843;SDS011;1937;51.444;6.484;2023-11-21T01:08:15;30.07;;;14.47;;
3843;SDS011;1937;51.444;6.484;2023-11-21T01:10:42;28.10;;;14.67;;
3843;SDS011;1937;51.444;6.484;2023-11-21T01:13:09;36.17;;;17.67;;
3843;SDS011;1937;51.444;6.484;2023-11-21T01:15:39;32.60;;;15.60;;
3843;SDS011;1937;51.444;6.484;2023-11-21T01:18:08;29.90;;;14.77;;
3843;SDS011;1937;51.444;6.484;2023-11-21T01:20:37;31.60;;;15.20;;
3843;SDS011;1937;51.444;6.484;2023-11-21T01:23:06;35.60;;;16.27;;
3843;SDS011;1937;51.444;6.484;2023-11-21T01:25:34;29.73;;;14.87;;
3843;SDS011;1937;51.444;6.484;2023-11-21T01:28:02;37.60;;;18.40;;
3843;SDS011;1937;51.444;6.484;2023-11-21T01:30:31;39.50;;;17.10;;
3843;SDS011;1937;51.444;6.484;2023-11-21T01:33:02;39.43;;;17.07;;
3843;SDS011;1937;51.444;6.484;2023-11-21T01:35:30;30.23;;;15.63;;
3843;SDS011;1937;51.444;6.484;2023-11-21T01:37:59;33.73;;;17.27;;
3843;SDS011;1937;51.444;6.484;2023-11-21T01:40:27;37.40;;;18.17;;
3843;SDS011;1937;51.444;6.484;2023-11-21T01:42:56;36.10;;;16.10;;
3843;SDS011;1937;51.444;6.484;2023-11-21T01:45:24;38.90;;;18.20;;
3843;SDS011;1937;51.444;6.484;2023-11-21T01:47:56;32.97;;;15.40;;
3843;SDS011;1937;51.444;6.484;2023-11-21T01:50:27;33.97;;;15.50;;
3843;SDS011;1937;51.444;6.484;2023-11-21T01:52:54;31.60;;;16.60;;
3843;SDS011;1937;51.444;6.484;2023-11-21T01:55:24;32.93;;;17.30;;
3843;SDS011;1937;51.444;6.484;2023-11-21T01:57:52;38.57;;;18.07;;
3843;SDS011;1937;51.444;6.484;2023-11-21T02:00:20;34.57;;;15.63;;
3843;SDS011;1937;51.444;6.484;2023-11-21T02:02:51;36.57;;;16.53;;
3843;SDS011;1937;51.444;6.484;2023-11-21T02:05:20;34.50;;;17.00;;
3843;SDS011;1937;51.444;6.484;2023-11-21T02:07:49;44.80;;;17.30;;
3843;SDS011;1937;51.444;6.484;2023-11-21T02:10:18;39.20;;;17.10;;
3843;SDS011;1937;51.444;6.484;2023-11-21T02:12:48;35.53;;;16.90;;
3843;SDS011;1937;51.444;6.484;2023-11-21T02:15:18;33.33;;;17.73;;
3843;SDS011;1937;51.444;6.484;2023-11-21T02:17:46;35.30;;;15.57;;
3843;SDS011;1937;51.444;6.484;2023-11-21T02:20:17;33.23;;;16.60;;
3843;SDS011;1937;51.444;6.484;2023-11-21T02:22:49;40.80;;;18.03;;
3843;SDS011;1937;51.444;6.484;2023-11-21T02:25:23;36.73;;;17.33;;
3843;SDS011;1937;51.444;6.484;2023-11-21T02:27:51;34.77;;;16.57;;
3843;SDS011;1937;51.444;6.484;2023-11-21T02:30:20;41.40;;;17.37;;
3843;SDS011;1937;51.444;6.484;2023-11-21T02:32:50;31.47;;;15.83;;
3843;SDS011;1937;51.444;6.484;2023-11-21T02:35:19;34.23;;;17.13;;
3843;SDS011;1937;51.444;6.484;2023-11-21T02:37:47;29.30;;;15.97;;
3843;SDS011;1937;51.444;6.484;2023-11-21T02:40:16;44.23;;;17.07;;
3843;SDS011;1937;51.444;6.484;2023-11-21T02:42:46;41.67;;;16.53;;
3843;SDS011;1937;51.444;6.484;2023-11-21T02:45:17;31.00;;;15.27;;
3843;SDS011;1937;51.444;6.484;2023-11-21T02:47:46;27.30;;;14.30;;
3843;SDS011;1937;51.444;6.484;2023-11-21T02:50:15;29.63;;;15.77;;
3843;SDS011;1937;51.444;6.484;2023-11-21T02:52:44;35.23;;;17.00;;
3843;SDS011;1937;51.444;6.484;2023-11-21T02:55:14;31.27;;;16.67;;
3843;SDS011;1937;51.444;6.484;2023-11-21T02:57:42;30.40;;;16.77;;
3843;SDS011;1937;51.444;6.484;2023-11-21T03:00:09;40.63;;;17.03;;
3843;SDS011;1937;51.444;6.484;2023-11-21T03:02:38;32.83;;;17.50;;
3843;SDS011;1937;51.444;6.484;2023-11-21T03:05:08;35.47;;;16.60;;
3843;SDS011;1937;51.444;6.484;2023-11-21T03:07:36;34.87;;;17.80;;
3843;SDS011;1937;51.444;6.484;2023-11-21T03:10:03;38.90;;;15.60;;
3843;SDS011;1937;51.444;6.484;2023-11-21T03:12:32;43.47;;;17.73;;
3843;SDS011;1937;51.444;6.484;2023-11-21T03:15:00;34.57;;;18.00;;
3843;SDS011;1937;51.444;6.484;2023-11-21T03:17:29;33.47;;;17.60;;
3843;SDS011;1937;51.444;6.484;2023-11-21T03:19:59;35.90;;;16.60;;
3843;SDS011;1937;51.444;6.484;2023-11-21T03:22:29;35.50;;;15.60;;
3843;SDS011;1937;51.444;6.484;2023-11-21T03:24:57;36.57;;;15.40;;
3843;SDS011;1937;51.444;6.484;2023-11-21T03:27:26;35.93;;;16.63;;
3843;SDS011;1937;51.444;6.484;2023-11-21T03:29:55;35.30;;;16.10;;
3843;SDS011;1937;51.444;6.484;2023-11-21T03:32:23;40.53;;;17.83;;
3843;SDS011;1937;51.444;6.484;2023-11-21T03:34:54;35.23;;;16.57;;
3843;SDS011;1937;51.444;6.484;2023-11-21T03:37:23;32.90;;;16.40;;
3843;SDS011;1937;51.444;6.484;2023-11-21T03:39:53;36.77;;;18.17;;
3843;SDS011;1937;51.444;6.484;2023-11-21T03:42:22;36.13;;;17.93;;
3843;SDS011;1937;51.444;6.484;2023-11-21T03:44:51;42.37;;;17.37;;
3843;SDS011;1937;51.444;6.484;2023-11-21T03:47:21;42.37;;;15.57;;
3843;SDS011;1937;51.444;6.484;2023-11-21T03:49:49;36.77;;;17.73;;
3843;SDS011;1937;51.444;6.484;2023-11-21T03:52:17;29.37;;;15.37;;
3843;SDS011;1937;51.444;6.484;2023-11-21T03:54:46;38.30;;;16.70;;
3843;SDS011;1937;51.444;6.484;2023-11-21T03:57:14;43.90;;;18.50;;
3843;SDS011;1937;51.444;6.484;2023-11-21T03:59:42;39.80;;;18.83;;
3843;SDS011;1937;51.444;6.484;2023-11-21T04:02:11;46.50;;;17.40;;
3843;SDS011;1937;51.444;6.484;2023-11-21T04:04:41;38.50;;;17.13;;
3843;SDS011;1937;51.444;6.484;2023-11-21T04:07:08;41.73;;;16.20;;
3843;SDS011;1937;51.444;6.484;2023-11-21T04:09:36;36.97;;;17.83;;
3843;SDS011;1937;51.444;6.484;2023-11-21T04:12:05;37.30;;;16.33;;
3843;SDS011;1937;51.444;6.484;2023-11-21T04:14:34;41.43;;;17.80;;
3843;SDS011;1937;51.444;6.484;2023-11-21T04:17:02;46.03;;;19.50;;
3843;SDS011;1937;51.444;6.484;2023-11-21T04:19:30;41.10;;;19.57;;
3843;SDS011;1937;51.444;6.484;2023-11-21T04:22:00;41.80;;;18.30;;
3843;SDS011;1937;51.444;6.484;2023-11-21T04:24:29;39.20;;;17.37;;
3843;SDS011;1937;51.444;6.484;2023-11-21T04:26:58;48.83;;;18.93;;
3843;SDS011;1937;51.444;6.484;2023-11-21T04:29:26;47.60;;;19.13;;
3843;SDS011;1937;51.444;6.484;2023-11-21T04:31:55;48.80;;;19.93;;
3843;SDS011;1937;51.444;6.484;2023-11-21T04:34:24;49.93;;;20.87;;
3843;SDS011;1937;51.444;6.484;2023-11-21T04:36:51;49.33;;;21.60;;
3843;SDS011;1937;51.444;6.484;2023-11-21T04:39:20;51.10;;;20.33;;
3843;SDS011;1937;51.444;6.484;2023-11-21T04:41:49;46.43;;;18.87;;
3843;SDS011;1937;51.444;6.484;2023-11-21T04:44:17;50.67;;;19.77;;
3843;SDS011;1937;51.444;6.484;2023-11-21T04:46:46;49.10;;;20.43;;
3843;SDS011;1937;51.444;6.484;2023-11-21T04:49:15;59.63;;;21.97;;
3843;SDS011;1937;51.444;6.484;2023-11-21T04:51:43;50.17;;;19.80;;
3843;SDS011;1937;51.444;6.484;2023-11-21T04:54:12;63.00;;;22.80;;
3843;SDS011;1937;51.444;6.484;2023-11-21T04:56:41;58.53;;;21.40;;
3843;SDS011;1937;51.444;6.484;2023-11-21T04:59:09;55.97;;;22.27;;
3843;SDS011;1937;51.444;6.484;2023-11-21T05:01:37;59.10;;;23.87;;
3843;SDS011;1937;51.444;6.484;2023-11-21T05:04:05;50.13;;;20.10;;
3843;SDS011;1937;51.444;6.484;2023-11-21T05:06:34;46.87;;;19.60;;
3843;SDS011;1937;51.444;6.484;2023-11-21T05:09:02;62.47;;;23.00;;
3843;SDS011;1937;51.444;6.484;2023-11-21T05:11:31;56.37;;;22.87;;
3843;SDS011;1937;51.444;6.484;2023-11-21T05:14:01;49.40;;;19.90;;
3843;SDS011;1937;51.444;6.484;2023-11-21T05:16:30;49.83;;;20.63;;
3843;SDS011;1937;51.444;6.484;2023-11-21T05:18:59;58.63;;;21.67;;
3843;SDS011;1937;51.444;6.484;2023-11-21T05:21:27;45.77;;;19.43;;
3843;SDS011;1937;51.444;6.484;2023-11-21T05:23:55;49.70;;;20.07;;
3843;SDS011;1937;51.444;6.484;2023-11-21T05:26:23;63.90;;;23.43;;
3843;SDS011;1937;51.444;6.484;2023-11-21T05:28:52;56.17;;;21.97;;
3843;SDS011;1937;51.444;6.484;2023-11-21T05:31:20;51.50;;;20.60;;
3843;SDS011;1937;51.444;6.484;2023-11-21T05:33:49;52.17;;;21.60;;
3843;SDS011;1937;51.444;6.484;2023-11-21T05:36:17;52.60;;;20.33;;
3843;SDS011;1937;51.444;6.484;2023-11-21T05:38:45;62.93;;;22.93;;
3843;SDS011;1937;51.444;6.484;2023-11-21T05:41:13;54.30;;;22.40;;
3843;SDS011;1937;51.444;6.484;2023-11-21T05:43:40;60.73;;;21.80;;
3843;SDS011;1937;51.444;6.484;2023-11-21T05:46:09;64.97;;;20.93;;
3843;SDS011;1937;51.444;6.484;2023-11-21T05:48:40;43.80;;;18.87;;
3843;SDS011;1937;51.444;6.484;2023-11-21T05:51:08;53.33;;;20.80;;
3843;SDS011;1937;51.444;6.484;2023-11-21T05:53:38;47.00;;;20.20;;
3843;SDS011;1937;51.444;6.484;2023-11-21T05:56:06;44.70;;;18.60;;
3843;SDS011;1937;51.444;6.484;2023-11-21T05:58:35;75.93;;;21.03;;
3843;SDS011;1937;51.444;6.484;2023-11-21T06:01:05;45.97;;;19.80;;
3843;SDS011;1937;51.444;6.484;2023-11-21T06:03:34;50.43;;;21.60;;
3843;SDS011;1937;51.444;6.484;2023-11-21T06:06:04;55.63;;;20.40;;
3843;SDS011;1937;51.444;6.484;2023-11-21T06:08:32;58.10;;;19.93;;
3843;SDS011;1937;51.444;6.484;2023-11-21T06:11:01;61.40;;;22.73;;
3843;SDS011;1937;51.444;6.484;2023-11-21T06:13:28;54.27;;;19.23;;
3843;SDS011;1937;51.444;6.484;2023-11-21T06:15:56;57.07;;;21.43;;
3843;SDS011;1937;51.444;6.484;2023-11-21T06:18:27;49.67;;;19.40;;
3843;SDS011;1937;51.444;6.484;2023-11-21T06:20:55;49.87;;;19.87;;
3843;SDS011;1937;51.444;6.484;2023-11-21T06:23:27;59.17;;;23.67;;
3843;SDS011;1937;51.444;6.484;2023-11-21T06:25:56;52.80;;;20.07;;
3843;SDS011;1937;51.444;6.484;2023-11-21T06:28:24;47.30;;;20.83;;
3843;SDS011;1937;51.444;6.484;2023-11-21T06:30:51;52.00;;;21.07;;
3843;SDS011;1937;51.444;6.484;2023-11-21T06:33:19;59.23;;;20.70;;
3843;SDS011;1937;51.444;6.484;2023-11-21T06:35:48;56.13;;;22.93;;
3843;SDS011;1937;51.444;6.484;2023-11-21T06:38:17;52.37;;;23.27;;
3843;SDS011;1937;51.444;6.484;2023-11-21T06:40:46;64.97;;;23.90;;
3843;SDS011;1937;51.444;6.484;2023-11-21T06:43:14;68.30;;;25.80;;
3843;SDS011;1937;51.444;6.484;2023-11-21T06:45:43;64.03;;;22.67;;
3843;SDS011;1937;51.444;6.484;2023-11-21T06:48:11;59.30;;;22.50;;
3843;SDS011;1937;51.444;6.484;2023-11-21T06:50:40;51.60;;;21.57;;
3843;SDS011;1937;51.444;6.484;2023-11-21T06:53:07;58.83;;;21.80;;
3843;SDS011;1937;51.444;6.484;2023-11-21T06:55:35;63.07;;;22.97;;
3843;SDS011;1937;51.444;6.484;2023-11-21T06:58:05;64.00;;;23.90;;
3843;SDS011;1937;51.444;6.484;2023-11-21T07:00:32;60.93;;;23.60;;
3843;SDS011;1937;51.444;6.484;2023-11-21T07:03:00;56.67;;;23.33;;
3843;SDS011;1937;51.444;6.484;2023-11-21T07:05:30;70.10;;;23.03;;
3843;SDS011;1937;51.444;6.484;2023-11-21T07:07:59;49.97;;;20.70;;
3843;SDS011;1937;51.444;6.484;2023-11-21T07:10:30;52.70;;;21.43;;
3843;SDS011;1937;51.444;6.484;2023-11-21T07:12:58;50.90;;;22.13;;
3843;SDS011;1937;51.444;6.484;2023-11-21T07:15:27;48.73;;;21.40;;
3843;SDS011;1937;51.444;6.484;2023-11-21T07:17:55;53.00;;;20.40;;
3843;SDS011;1937;51.444;6.484;2023-11-21T07:20:23;46.70;;;20.10;;
3843;SDS011;1937;51.444;6.484;2023-11-21T07:22:52;61.90;;;23.00;;
3843;SDS011;1937;51.444;6.484;2023-11-21T07:25:21;64.27;;;22.53;;
3843;SDS011;1937;51.444;6.484;2023-11-21T07:27:49;53.73;;;22.07;;
3843;SDS011;1937;51.444;6.484;2023-11-21T07:30:16;63.87;;;22.73;;
3843;SDS011;1937;51.444;6.484;2023-11-21T07:32:45;53.83;;;20.90;;
3843;SDS011;1937;51.444;6.484;2023-11-21T07:35:15;60.87;;;20.90;;
3843;SDS011;1937;51.444;6.484;2023-11-21T07:37:43;51.13;;;21.97;;
3843;SDS011;1937;51.444;6.484;2023-11-21T07:40:13;69.27;;;21.03;;
3843;SDS011;1937;51.444;6.484;2023-11-21T07:42:42;61.60;;;22.30;;
3843;SDS011;1937;51.444;6.484;2023-11-21T07:45:10;53.30;;;20.70;;
3843;SDS011;1937;51.444;6.484;2023-11-21T07:47:40;50.73;;;20.90;;
3843;SDS011;1937;51.444;6.484;2023-11-21T07:50:10;47.70;;;20.63;;
3843;SDS011;1937;51.444;6.484;2023-11-21T07:52:39;52.63;;;21.03;;
3843;SDS011;1937;51.444;6.484;2023-11-21T07:55:06;54.57;;;21.20;;
3843;SDS011;1937;51.444;6.484;2023-11-21T07:57:35;57.00;;;22.20;;
3843;SDS011;1937;51.444;6.484;2023-11-21T08:00:04;51.07;;;21.10;;
3843;SDS011;1937;51.444;6.484;2023-11-21T08:02:34;53.47;;;21.33;;
3843;SDS011;1937;51.444;6.484;2023-11-21T08:05:01;56.33;;;22.07;;
3843;SDS011;1937;51.444;6.484;2023-11-21T08:07:33;49.73;;;21.40;;
3843;SDS011;1937;51.444;6.484;2023-11-21T08:10:01;50.00;;;20.20;;
3843;SDS011;1937;51.444;6.484;2023-11-21T08:12:30;57.83;;;22.53;;
3843;SDS011;1937;51.444;6.484;2023-11-21T08:14:59;43.60;;;20.90;;
3843;SDS011;1937;51.444;6.484;2023-11-21T08:17:29;58.60;;;22.50;;
3843;SDS011;1937;51.444;6.484;2023-11-21T08:19:58;50.53;;;20.10;;
3843;SDS011;1937;51.444;6.484;2023-11-21T08:22:25;61.03;;;22.27;;
3843;SDS011;1937;51.444;6.484;2023-11-21T08:24:53;56.63;;;21.90;;
3843;SDS011;1937;51.444;6.484;2023-11-21T08:27:21;49.20;;;21.43;;
3843;SDS011;1937;51.444;6.484;2023-11-21T08:29:49;60.20;;;22.30;;
3843;SDS011;1937;51.444;6.484;2023-11-21T08:32:20;67.20;;;24.00;;
3843;SDS011;1937;51.444;6.484;2023-11-21T08:34:48;57.23;;;21.53;;
3843;SDS011;1937;51.444;6.484;2023-11-21T08:37:17;56.23;;;20.00;;
3843;SDS011;1937;51.444;6.484;2023-11-21T08:39:46;45.83;;;21.63;;
3843;SDS011;1937;51.444;6.484;2023-11-21T08:42:16;45.33;;;19.60;;
3843;SDS011;1937;51.444;6.484;2023-11-21T08:44:43;43.87;;;20.57;;
3843;SDS011;1937;51.444;6.484;2023-11-21T08:47:11;39.53;;;19.37;;
3843;SDS011;1937;51.444;6.484;2023-11-21T08:49:40;51.47;;;20.03;;
3843;SDS011;1937;51.444;6.484;2023-11-21T08:52:08;55.00;;;20.23;;
3843;SDS011;1937;51.444;6.484;2023-11-21T08:54:37;50.73;;;20.90;;
3843;SDS011;1937;51.444;6.484;2023-11-21T08:57:06;45.00;;;20.77;;
3843;SDS011;1937;51.444;6.484;2023-11-21T08:59:35;48.23;;;19.93;;
3843;SDS011;1937;51.444;6.484;2023-11-21T09:02:03;46.90;;;20.30;;
3843;SDS011;1937;51.444;6.484;2023-11-21T09:04:33;39.57;;;18.30;;
3843;SDS011;1937;51.444;6.484;2023-11-21T09:07:02;46.73;;;21.47;;
3843;SDS011;1937;51.444;6.484;2023-11-21T09:09:30;40.90;;;18.27;;
3843;SDS011;1937;51.444;6.484;2023-11-21T09:11:59;39.77;;;18.67;;
3843;SDS011;1937;51.444;6.484;2023-11-21T09:14:27;44.97;;;19.07;;
3843;SDS011;1937;51.444;6.484;2023-11-21T09:16:56;44.97;;;19.87;;
3843;SDS011;1937;51.444;6.484;2023-11-21T09:19:24;46.73;;;20.20;;
3843;SDS011;1937;51.444;6.484;2023-11-21T09:21:52;38.80;;;19.77;;
3843;SDS011;1937;51.444;6.484;2023-11-21T09:24:19;43.23;;;19.27;;
3843;SDS011;1937;51.444;6.484;2023-11-21T09:26:45;46.47;;;19.40;;
3843;SDS011;1937;51.444;6.484;2023-11-21T09:29:12;40.10;;;17.73;;
3843;SDS011;1937;51.444;6.484;2023-11-21T09:31:41;47.50;;;23.07;;
3843;SDS011;1937;51.444;6.484;2023-11-21T09:34:11;48.87;;;20.07;;
3843;SDS011;1937;51.444;6.484;2023-11-21T09:36:44;38.27;;;19.27;;
3843;SDS011;1937;51.444;6.484;2023-11-21T09:39:13;50.23;;;19.50;;
3843;SDS011;1937;51.444;6.484;2023-11-21T09:41:44;35.90;;;16.70;;
3843;SDS011;1937;51.444;6.484;2023-11-21T09:44:18;39.40;;;18.20;;
3843;SDS011;1937;51.444;6.484;2023-11-21T09:46:50;39.70;;;18.50;;
3843;SDS011;1937;51.444;6.484;2023-11-21T09:49:22;44.23;;;18.87;;
3843;SDS011;1937;51.444;6.484;2023-11-21T09:51:54;39.30;;;17.10;;
3843;SDS011;1937;51.444;6.484;2023-11-21T09:54:22;38.50;;;17.23;;
3843;SDS011;1937;51.444;6.484;2023-11-21T09:56:51;42.70;;;19.47;;
3843;SDS011;1937;51.444;6.484;2023-11-21T09:59:23;40.73;;;18.47;;
3843;SDS011;1937;51.444;6.484;2023-11-21T10:01:51;46.53;;;18.13;;
3843;SDS011;1937;51.444;6.484;2023-11-21T10:04:19;43.90;;;18.40;;
3843;SDS011;1937;51.444;6.484;2023-11-21T10:06:49;52.03;;;19.90;;
3843;SDS011;1937;51.444;6.484;2023-11-21T10:09:19;47.10;;;19.13;;
3843;SDS011;1937;51.444;6.484;2023-11-21T10:11:50;49.70;;;18.03;;
3843;SDS011;1937;51.444;6.484;2023-11-21T10:14:19;37.83;;;18.33;;
3843;SDS011;1937;51.444;6.484;2023-11-21T10:16:51;42.70;;;19.47;;
3843;SDS011;1937;51.444;6.484;2023-11-21T10:19:21;39.37;;;17.10;;
3843;SDS011;1937;51.444;6.484;2023-11-21T10:21:50;41.47;;;17.57;;
3843;SDS011;1937;51.444;6.484;2023-11-21T10:24:17;37.00;;;17.13;;
3843;SDS011;1937;51.444;6.484;2023-11-21T10:26:45;36.57;;;17.90;;
3843;SDS011;1937;51.444;6.484;2023-11-21T10:29:16;41.43;;;17.30;;
3843;SDS011;1937;51.444;6.484;2023-11-21T10:31:48;39.57;;;16.93;;
3843;SDS011;1937;51.444;6.484;2023-11-21T10:34:16;38.80;;;16.77;;
3843;SDS011;1937;51.444;6.484;2023-11-21T10:36:46;44.27;;;17.10;;
3843;SDS011;1937;51.444;6.484;2023-11-21T10:39:16;37.43;;;16.00;;
3843;SDS011;1937;51.444;6.484;2023-11-21T10:41:43;39.77;;;17.50;;
3843;SDS011;1937;51.444;6.484;2023-11-21T10:44:13;43.37;;;16.77;;
3843;SDS011;1937;51.444;6.484;2023-11-21T10:46:46;36.10;;;15.67;;
3843;SDS011;1937;51.444;6.484;2023-11-21T10:49:16;37.87;;;17.77;;
3843;SDS011;1937;51.444;6.484;2023-11-21T10:51:44;37.20;;;17.30;;
3843;SDS011;1937;51.444;6.484;2023-11-21T10:54:18;32.90;;;16.50;;
3843;SDS011;1937;51.444;6.484;2023-11-21T10:56:48;53.00;;;18.90;;
3843;SDS011;1937;51.444;6.484;2023-11-21T10:59:17;38.77;;;16.87;;
3843;SDS011;1937;51.444;6.484;2023-11-21T11:01:50;33.07;;;16.67;;
3843;SDS011;1937;51.444;6.484;2023-11-21T11:04:19;47.40;;;17.30;;
3843;SDS011;1937;51.444;6.484;2023-11-21T11:06:51;33.90;;;16.30;;
3843;SDS011;1937;51.444;6.484;2023-11-21T11:09:23;33.07;;;16.10;;
3843;SDS011;1937;51.444;6.484;2023-11-21T11:11:51;41.33;;;15.20;;
3843;SDS011;1937;51.444;6.484;2023-11-21T11:14:20;43.83;;;16.90;;
3843;SDS011;1937;51.444;6.484;2023-11-21T11:16:52;34.83;;;16.87;;
3843;SDS011;1937;51.444;6.484;2023-11-21T11:19:22;40.83;;;16.97;;
3843;SDS011;1937;51.444;6.484;2023-11-21T11:21:57;32.23;;;15.87;;
3843;SDS011;1937;51.444;6.484;2023-11-21T11:24:44;39.37;;;17.83;;
3843;SDS011;1937;51.444;6.484;2023-11-21T11:27:27;37.30;;;16.53;;
3843;SDS011;1937;51.444;6.484;2023-11-21T11:30:07;31.90;;;15.50;;
3843;SDS011;1937;51.444;6.484;2023-11-21T11:32:46;36.90;;;16.60;;
3843;SDS011;1937;51.444;6.484;2023-11-21T11:35:24;36.87;;;17.30;;
3843;SDS011;1937;51.444;6.484;2023-11-21T11:38:01;35.03;;;16.10;;
3843;SDS011;1937;51.444;6.484;2023-11-21T11:40:39;34.03;;;16.17;;
3843;SDS011;1937;51.444;6.484;2023-11-21T11:43:08;32.30;;;15.90;;
3843;SDS011;1937;51.444;6.484;2023-11-21T11:45:37;39.93;;;17.37;;
3843;SDS011;1937;51.444;6.484;2023-11-21T11:48:08;35.60;;;16.20;;
3843;SDS011;1937;51.444;6.484;2023-11-21T11:50:42;35.93;;;16.50;;
3843;SDS011;1937;51.444;6.484;2023-11-21T11:53:24;36.90;;;16.17;;
3843;SDS011;1937;51.444;6.484;2023-11-21T11:56:00;38.10;;;16.57;;
3843;SDS011;1937;51.444;6.484;2023-11-21T11:58:51;39.90;;;15.57;;
3843;SDS011;1937;51.444;6.484;2023-11-21T12:01:20;28.40;;;14.87;;
3843;SDS011;1937;51.444;6.484;2023-11-21T12:06:51;29.57;;;15.07;;
3843;SDS011;1937;51.444;6.484;2023-11-21T12:09:20;34.53;;;16.50;;
3843;SDS011;1937;51.444;6.484;2023-11-21T12:11:54;36.17;;;15.67;;
3843;SDS011;1937;51.444;6.484;2023-11-21T12:14:23;34.47;;;16.20;;
3843;SDS011;1937;51.444;6.484;2023-11-21T12:16:51;30.27;;;14.63;;
3843;SDS011;1937;51.444;6.484;2023-11-21T12:19:20;35.27;;;15.93;;
3843;SDS011;1937;51.444;6.484;2023-11-21T12:21:49;36.03;;;16.73;;
3843;SDS011;1937;51.444;6.484;2023-11-21T12:24:17;32.50;;;15.53;;
3843;SDS011;1937;51.444;6.484;2023-11-21T12:26:46;36.87;;;16.20;;
3843;SDS011;1937;51.444;6.484;2023-11-21T12:29:16;37.20;;;18.57;;
3843;SDS011;1937;51.444;6.484;2023-11-21T12:31:45;31.63;;;17.43;;
3843;SDS011;1937;51.444;6.484;2023-11-21T12:34:15;37.43;;;19.50;;
3843;SDS011;1937;51.444;6.484;2023-11-21T12:36:43;37.90;;;18.10;;
3843;SDS011;1937;51.444;6.484;2023-11-21T12:39:12;37.30;;;17.97;;
3843;SDS011;1937;51.444;6.484;2023-11-21T12:41:40;32.77;;;15.83;;
3843;SDS011;1937;51.444;6.484;2023-11-21T12:44:09;40.33;;;17.60;;
3843;SDS011;1937;51.444;6.484;2023-11-21T12:46:42;37.63;;;17.60;;
3843;SDS011;1937;51.444;6.484;2023-11-21T12:49:12;33.70;;;18.00;;
3843;SDS011;1937;51.444;6.484;2023-11-21T12:51:43;32.03;;;15.97;;
3843;SDS011;1937;51.444;6.484;2023-11-21T12:54:11;34.93;;;17.80;;
3843;SDS011;1937;51.444;6.484;2023-11-21T12:56:41;30.40;;;14.27;;
3843;SDS011;1937;51.444;6.484;2023-11-21T12:59:13;33.90;;;15.83;;
3843;SDS011;1937;51.444;6.484;2023-11-21T13:01:44;37.33;;;15.83;;
3843;SDS011;1937;51.444;6.484;2023-11-21T13:04:16;30.87;;;17.00;;
3843;SDS011;1937;51.444;6.484;2023-11-21T13:06:44;33.47;;;16.10;;
3843;SDS011;1937;51.444;6.484;2023-11-21T13:09:11;36.53;;;17.50;;
3843;SDS011;1937;51.444;6.484;2023-11-21T13:11:47;37.77;;;18.20;;
3843;SDS011;1937;51.444;6.484;2023-11-21T13:14:15;36.20;;;16.80;;
3843;SDS011;1937;51.444;6.484;2023-11-21T13:16:41;33.30;;;17.03;;
3843;SDS011;1937;51.444;6.484;2023-11-21T13:19:13;25.97;;;15.37;;
3843;SDS011;1937;51.444;6.484;2023-11-21T13:21:41;36.40;;;15.33;;
3843;SDS011;1937;51.444;6.484;2023-11-21T13:24:09;30.47;;;14.70;;
3843;SDS011;1937;51.444;6.484;2023-11-21T13:26:37;31.63;;;13.80;;
3843;SDS011;1937;51.444;6.484;2023-11-21T13:29:06;21.87;;;11.43;;
3843;SDS011;1937;51.444;6.484;2023-11-21T13:31:32;30.23;;;13.43;;
3843;SDS011;1937;51.444;6.484;2023-11-21T13:34:02;26.67;;;14.93;;
3843;SDS011;1937;51.444;6.484;2023-11-21T13:36:35;22.60;;;12.33;;
3843;SDS011;1937;51.444;6.484;2023-11-21T13:39:03;27.00;;;12.57;;
3843;SDS011;1937;51.444;6.484;2023-11-21T13:41:33;23.53;;;13.40;;
3843;SDS011;1937;51.444;6.484;2023-11-21T13:44:03;25.27;;;13.30;;
3843;SDS011;1937;51.444;6.484;2023-11-21T13:46:41;31.83;;;14.07;;
3843;SDS011;1937;51.444;6.484;2023-11-21T13:49:11;24.53;;;13.40;;
3843;SDS011;1937;51.444;6.484;2023-11-21T13:51:42;31.03;;;14.97;;
3843;SDS011;1937;51.444;6.484;2023-11-21T13:54:13;37.20;;;14.50;;
3843;SDS011;1937;51.444;6.484;2023-11-21T13:56:41;32.17;;;15.67;;
3843;SDS011;1937;51.444;6.484;2023-11-21T13:59:10;29.67;;;14.77;;
3843;SDS011;1937;51.444;6.484;2023-11-21T14:01:45;31.27;;;12.73;;
3843;SDS011;1937;51.444;6.484;2023-11-21T14:04:23;29.67;;;14.07;;
3843;SDS011;1937;51.444;6.484;2023-11-21T14:07:09;27.27;;;12.90;;
3843;SDS011;1937;51.444;6.484;2023-11-21T14:09:51;32.97;;;14.10;;
3843;SDS011;1937;51.444;6.484;2023-11-21T14:12:19;31.53;;;15.60;;
3843;SDS011;1937;51.444;6.484;2023-11-21T14:14:49;37.50;;;13.47;;
3843;SDS011;1937;51.444;6.484;2023-11-21T14:17:17;27.10;;;14.00;;
3843;SDS011;1937;51.444;6.484;2023-11-21T14:19:49;32.17;;;14.10;;
3843;SDS011;1937;51.444;6.484;2023-11-21T14:22:19;26.03;;;14.03;;
3843;SDS011;1937;51.444;6.484;2023-11-21T14:24:46;26.90;;;13.47;;
3843;SDS011;1937;51.444;6.484;2023-11-21T14:27:15;24.60;;;13.40;;
3843;SDS011;1937;51.444;6.484;2023-11-21T14:29:45;30.23;;;14.00;;
3843;SDS011;1937;51.444;6.484;2023-11-21T14:32:14;34.80;;;15.77;;
3843;SDS011;1937;51.444;6.484;2023-11-21T14:34:43;33.27;;;15.10;;
3843;SDS011;1937;51.444;6.484;2023-11-21T14:37:12;36.33;;;14.57;;
3843;SDS011;1937;51.444;6.484;2023-11-21T14:39:41;30.70;;;16.00;;
3843;SDS011;1937;51.444;6.484;2023-11-21T14:42:11;41.17;;;14.80;;
3843;SDS011;1937;51.444;6.484;2023-11-21T14:44:41;32.47;;;14.63;;
3843;SDS011;1937;51.444;6.484;2023-11-21T14:47:09;30.27;;;12.47;;
3843;SDS011;1937;51.444;6.484;2023-11-21T14:49:41;22.53;;;11.03;;
3843;SDS011;1937;51.444;6.484;2023-11-21T14:52:36;24.57;;;11.97;;
3843;SDS011;1937;51.444;6.484;2023-11-21T14:55:18;24.03;;;12.30;;
3843;SDS011;1937;51.444;6.484;2023-11-21T14:57:47;20.73;;;11.60;;
3843;SDS011;1937;51.444;6.484;2023-11-21T15:00:16;23.00;;;11.23;;
3843;SDS011;1937;51.444;6.484;2023-11-21T15:03:02;23.93;;;11.30;;
3843;SDS011;1937;51.444;6.484;2023-11-21T15:05:30;24.73;;;12.20;;